Time;durP1;ratioP1;P1;durP2;ratioP2;P2;SDS_P1;SDS_P2;PMS_P1;PMS_P2;Temp;Humidity;BMP_temperature;BMP_pressure;BME280_temperature;BME280_humidity;BME280_pressure;Samples;Min_cycle;Max_cycle;Signal;HPM_P1;HPM_P2
2023/07/29 00:02:09;;;;;;;;;;;19.80;62.80;;;15.71;100.00;95199.34;4975761;28;20011;-55
2023/07/29 00:04:34;;;;;;;;;;;19.70;62.70;;;15.69;100.00;95196.19;4963370;28;19910;-52
2023/07/29 00:07:00;;;;;;;;;;;19.70;62.90;;;15.66;100.00;95204.81;4965545;28;19910;-54
2023/07/29 00:09:26;;;;;;;;;;;19.60;62.80;;;15.62;100.00;95210.00;4970312;28;19910;-51
2023/07/29 00:11:51;;;;;;;;;;;19.60;62.90;;;15.58;100.00;95208.25;4966331;28;19916;-53
2023/07/29 00:14:17;;;;;;;;;;;19.60;63.00;;;15.53;100.00;95200.31;4976182;28;19957;-56
2023/07/29 00:16:43;;;;;;;;;;;19.50;63.00;;;15.48;100.00;95207.38;4966876;28;19968;-51
2023/07/29 00:19:09;;;;;;;;;;;19.50;63.00;;;15.43;100.00;95206.72;4976396;28;19910;-54
2023/07/29 00:21:35;;;;;;;;;;;19.50;63.20;;;15.37;100.00;95208.72;4976615;28;19914;-52
2023/07/29 00:24:01;;;;;;;;;;;19.50;63.20;;;15.37;100.00;95205.22;4975304;28;19910;-53
2023/07/29 00:26:28;;;;;;;;;;;19.40;63.20;;;15.36;100.00;95201.75;4976450;28;20008;-52
2023/07/29 00:28:56;;;;;;;;;;;19.30;63.20;;;15.27;100.00;95187.47;4975329;28;19917;-50
2023/07/29 00:31:22;;;;;;;;;;;19.30;63.20;;;15.26;100.00;95191.25;4976142;28;19909;-52
2023/07/29 00:33:47;;;;;;;;;;;19.30;64.10;;;15.22;100.00;95184.91;4976014;28;19925;-51
2023/07/29 00:36:13;;;;;;;;;;;19.20;63.30;;;15.19;100.00;95186.28;4975373;28;19960;-55
2023/07/29 00:38:39;;;;;;;;;;;19.20;63.30;;;15.18;100.00;95178.56;4976203;28;20055;-54
2023/07/29 00:41:06;;;;;;;;;;;19.20;63.50;;;15.16;100.00;95172.69;4975104;28;19980;-51
2023/07/29 00:43:32;;;;;;;;;;;19.10;63.50;;;15.12;100.00;95175.19;4974747;28;19910;-55
2023/07/29 00:45:59;;;;;;;;;;;19.10;63.60;;;15.11;100.00;95172.84;4975938;28;19916;-49
2023/07/29 00:48:26;;;;;;;;;;;19.10;63.70;;;15.10;100.00;95172.03;4974919;28;19917;-54
2023/07/29 00:50:52;;;;;;;;;;;19.10;63.80;;;15.02;100.00;95170.06;4976213;28;19932;-52
2023/07/29 00:53:18;;;;;;;;;;;19.10;63.80;;;15.06;100.00;95165.69;4974922;28;20338;-50
2023/07/29 00:55:44;;;;;;;;;;;19.10;63.90;;;15.06;100.00;95171.03;4975959;28;20008;-54
2023/07/29 00:58:11;;;;;;;;;;;19.10;63.90;;;15.03;100.00;95169.75;4975621;28;19937;-51
2023/07/29 01:00:37;;;;;;;;;;;19.10;64.00;;;15.04;100.00;95174.03;4973260;28;19983;-49
2023/07/29 01:03:03;;;;;;;;;;;19.10;64.00;;;15.08;100.00;95171.53;4975443;28;19910;-50
2023/07/29 01:06:01;;;;;;;;;;;19.10;64.00;;;15.07;100.00;95164.56;4975008;28;19917;-48
2023/07/29 01:08:51;;;;;;;;;;;19.10;64.00;;;15.04;100.00;95165.19;4990050;28;20442;-49
2023/07/29 01:11:35;;;;;;;;;;;19.10;64.00;;;15.02;100.00;95153.97;4969566;28;19910;-49
2023/07/29 01:14:26;;;;;;;;;;;19.10;64.10;;;15.01;100.00;95163.09;4957178;28;19922;-51
2023/07/29 01:16:58;;;;;;;;;;;19.10;64.20;;;15.00;100.00;95162.31;4973387;28;19918;-48
2023/07/29 01:20:05;;;;;;;;;;;19.00;64.20;;;15.03;100.00;95161.72;4976926;28;20399;-50
2023/07/29 01:22:33;;;;;;;;;;;19.10;64.40;;;15.04;100.00;95162.50;4958363;28;19932;-48
2023/07/29 01:25:00;;;;;;;;;;;19.10;64.40;;;15.07;100.00;95158.41;4970114;28;20354;-49
2023/07/29 01:27:26;;;;;;;;;;;19.10;64.40;;;15.09;100.00;95161.59;4960646;28;19922;-49
2023/07/29 01:29:54;;;;;;;;;;;19.10;64.50;;;15.10;100.00;95157.81;4973921;28;20004;-50
2023/07/29 01:32:54;;;;;;;;;;;19.10;65.20;;;15.09;100.00;95162.41;4974049;28;19910;-50
2023/07/29 01:35:41;;;;;;;;;;;19.20;64.50;;;15.15;100.00;95168.44;4973906;28;20407;-48
2023/07/29 01:38:35;;;;;;;;;;;19.20;64.60;;;15.18;100.00;95174.00;4963206;28;20023;-51
2023/07/29 01:41:08;;;;;;;;;;;19.20;64.60;;;15.20;100.00;95162.97;4965653;28;19909;-49
2023/07/29 01:43:41;;;;;;;;;;;19.20;64.60;;;15.20;100.00;95160.28;4974992;28;20005;-51
2023/07/29 01:46:07;;;;;;;;;;;19.20;64.50;;;15.21;100.00;95161.88;4969851;28;19910;-52
2023/07/29 01:48:33;;;;;;;;;;;19.20;64.60;;;15.21;100.00;95157.28;4965566;28;19910;-55
2023/07/29 01:50:59;;;;;;;;;;;19.20;64.60;;;15.24;100.00;95166.63;4966799;28;19933;-51
2023/07/29 01:53:24;;;;;;;;;;;19.30;64.70;;;15.24;100.00;95167.41;4973800;28;20280;-55
2023/07/29 01:55:50;;;;;;;;;;;19.30;64.70;;;15.26;100.00;95173.28;4970493;28;20000;-56
2023/07/29 01:58:16;;;;;;;;;;;19.30;64.70;;;15.30;100.00;95200.28;4960012;28;19909;-52
2023/07/29 02:00:41;;;;;;;;;;;19.40;64.80;;;15.32;100.00;95200.75;4964757;28;19909;-55
2023/07/29 02:03:07;;;;;;;;;;;19.40;64.80;;;15.37;100.00;95175.72;4974306;28;19914;-55
2023/07/29 02:05:33;;;;;;;;;;;19.50;65.60;;;15.41;100.00;95158.69;4966401;28;19910;-54
2023/07/29 02:07:59;;;;;;;;;;;19.50;64.80;;;15.46;100.00;95152.41;4956604;28;19968;-55
2023/07/29 02:10:25;;;;;;;;;;;19.50;64.90;;;15.48;100.00;95155.56;4968822;28;19918;-55
2023/07/29 02:12:50;;;;;;;;;;;19.50;64.90;;;15.49;100.00;95163.34;4971608;28;20384;-53
2023/07/29 02:15:16;;;;;;;;;;;19.50;64.80;;;15.44;100.00;95150.03;5003512;23;19921;-42
2023/07/29 02:17:42;;;;;;;;;;;19.50;64.80;;;15.46;100.00;95150.53;4992187;28;19925;-46
2023/07/29 02:20:10;;;;;;;;;;;19.50;64.80;;;15.49;100.00;95144.53;4993461;28;19984;-43
2023/07/29 02:22:36;;;;;;;;;;;19.50;64.80;;;15.45;100.00;95132.06;4993309;28;19964;-47
2023/07/29 02:25:02;;;;;;;;;;;19.50;64.90;;;15.48;100.00;95136.78;4990720;28;20371;-44
2023/07/29 02:27:28;;;;;;;;;;;19.50;64.90;;;15.49;100.00;95133.03;4985243;28;19909;-44
2023/07/29 02:29:54;;;;;;;;;;;19.50;64.90;;;15.48;100.00;95134.09;4989603;28;19917;-46
2023/07/29 02:32:21;;;;;;;;;;;19.50;64.90;;;15.47;100.00;95136.00;4986992;28;19941;-44
2023/07/29 02:34:47;;;;;;;;;;;19.50;64.90;;;15.47;100.00;95137.91;4973399;28;19994;-47
2023/07/29 02:37:12;;;;;;;;;;;19.50;64.90;;;15.40;100.00;95135.66;4991066;28;19940;-44
2023/07/29 02:39:38;;;;;;;;;;;19.50;64.90;;;15.43;100.00;95131.56;4973026;28;20384;-44
2023/07/29 02:42:04;;;;;;;;;;;19.50;65.00;;;15.44;100.00;95122.41;4976265;28;19910;-45
2023/07/29 02:44:30;;;;;;;;;;;19.50;65.00;;;15.44;100.00;95131.25;4972997;28;20376;-43
2023/07/29 02:46:56;;;;;;;;;;;19.50;65.10;;;15.43;100.00;95139.63;4984147;28;19956;-42
2023/07/29 02:49:23;;;;;;;;;;;19.50;65.10;;;15.44;100.00;95151.91;4984174;28;19917;-47
2023/07/29 02:51:49;;;;;;;;;;;19.50;65.10;;;15.45;100.00;95157.00;4975080;28;19963;-43
2023/07/29 02:54:15;;;;;;;;;;;19.50;65.20;;;15.44;100.00;95166.13;4982940;28;19914;-42
2023/07/29 02:56:40;;;;;;;;;;;19.50;65.20;;;15.47;100.00;95164.72;4987910;28;20450;-46
2023/07/29 02:59:06;;;;;;;;;;;19.50;65.20;;;15.47;100.00;95176.25;4991674;28;20818;-44
2023/07/29 03:01:32;;;;;;;;;;;19.50;65.20;;;15.50;100.00;95196.34;4991830;28;20391;-44
2023/07/29 03:03:58;;;;;;;;;;;19.60;65.30;;;15.48;100.00;95202.03;4988242;28;20273;-46
2023/07/29 03:06:24;;;;;;;;;;;19.60;65.40;;;15.49;100.00;95184.03;4986351;28;20466;-46
2023/07/29 03:08:50;;;;;;;;;;;19.60;65.40;;;15.53;100.00;95170.78;4984301;28;19924;-45
2023/07/29 03:11:17;;;;;;;;;;;19.60;65.50;;;15.56;100.00;95178.22;4983123;28;19914;-45
2023/07/29 03:13:43;;;;;;;;;;;19.60;65.50;;;15.60;100.00;95163.06;4984760;28;19968;-47
2023/07/29 03:16:11;;;;;;;;;;;19.60;65.50;;;15.62;100.00;95177.00;4986730;28;19932;-46
2023/07/29 03:18:38;;;;;;;;;;;19.70;65.50;;;15.63;100.00;95170.53;4991104;28;19909;-48
2023/07/29 03:21:04;;;;;;;;;;;19.70;65.50;;;15.63;100.00;95162.47;4991600;28;19944;-44
2023/07/29 03:23:32;;;;;;;;;;;19.70;65.50;;;15.65;100.00;95169.13;4991251;28;19962;-46
2023/07/29 03:26:09;;;;;;;;;;;19.70;65.40;;;15.66;100.00;95156.50;4978890;28;19916;-47
2023/07/29 03:28:39;;;;;;;;;;;19.70;65.40;;;15.66;100.00;95168.00;4990915;28;19909;-46
2023/07/29 03:31:05;;;;;;;;;;;19.70;65.40;;;15.65;100.00;95173.69;4991284;28;20005;-45
2023/07/29 03:33:30;;;;;;;;;;;19.70;65.40;;;15.63;100.00;95176.69;4981882;28;20042;-46
2023/07/29 03:35:56;;;;;;;;;;;19.70;65.40;;;15.57;100.00;95167.16;4986780;28;19925;-48
2023/07/29 03:38:22;;;;;;;;;;;19.70;65.40;;;15.65;100.00;95179.06;4985838;28;19913;-47
2023/07/29 03:40:48;;;;;;;;;;;19.70;65.50;;;15.68;100.00;95186.53;4972477;28;19910;-46
2023/07/29 03:43:14;;;;;;;;;;;19.70;65.50;;;15.70;100.00;95187.03;4981508;28;19909;-46
2023/07/29 03:45:40;;;;;;;;;;;19.80;65.60;;;15.72;100.00;95196.34;4991783;28;20283;-47
2023/07/29 03:48:06;;;;;;;;;;;19.80;65.70;;;15.72;100.00;95185.63;4990856;28;19916;-47
2023/07/29 03:50:35;;;;;;;;;;;19.80;65.60;;;15.73;100.00;95184.53;4991258;28;19918;-46
2023/07/29 03:53:04;;;;;;;;;;;19.80;65.60;;;15.75;100.00;95197.63;5005896;28;19920;-45
2023/07/29 03:55:32;;;;;;;;;;;19.80;65.60;;;15.82;100.00;95207.94;4978379;28;20292;-47
2023/07/29 03:57:59;;;;;;;;;;;19.90;65.80;;;15.85;100.00;95210.81;4991736;28;19909;-46
2023/07/29 04:00:25;;;;;;;;;;;19.90;65.80;;;15.87;100.00;95189.03;4990158;28;20101;-46
2023/07/29 04:02:51;;;;;;;;;;;19.90;65.80;;;15.86;100.00;95176.72;4991344;28;20031;-46
2023/07/29 04:05:18;;;;;;;;;;;19.90;65.90;;;15.87;100.00;95186.34;4985883;28;19910;-44
2023/07/29 04:07:44;;;;;;;;;;;19.80;65.90;;;15.88;100.00;95187.91;4982733;28;20001;-45
2023/07/29 04:10:11;;;;;;;;;;;19.80;66.00;;;15.92;100.00;95197.75;4991243;28;20361;-45
2023/07/29 04:12:37;;;;;;;;;;;19.80;66.00;;;15.95;100.00;95199.00;4985255;28;20331;-47
2023/07/29 04:15:03;;;;;;;;;;;19.80;66.10;;;15.93;100.00;95193.97;4989249;28;19932;-46
2023/07/29 04:17:28;;;;;;;;;;;19.80;66.10;;;15.91;100.00;95187.31;4990412;28;19909;-46
2023/07/29 04:19:54;;;;;;;;;;;19.80;66.10;;;15.91;100.00;95200.72;4990961;28;19910;-45
2023/07/29 04:22:20;;;;;;;;;;;19.80;67.00;;;15.88;100.00;95198.66;4991640;28;19932;-44
2023/07/29 04:24:46;;;;;;;;;;;19.70;66.10;;;15.83;100.00;95194.22;4990268;28;19955;-44
2023/07/29 04:27:12;;;;;;;;;;;19.70;66.20;;;15.81;100.00;95196.41;4991596;28;20287;-45
2023/07/29 04:29:38;;;;;;;;;;;19.70;66.20;;;15.79;100.00;95187.88;4985518;28;19910;-45
2023/07/29 04:32:05;;;;;;;;;;;19.70;66.20;;;15.76;100.00;95191.16;4983217;28;20375;-44
2023/07/29 04:34:31;;;;;;;;;;;19.70;66.30;;;15.72;100.00;95204.41;4978548;28;19956;-46
2023/07/29 04:36:58;;;;;;;;;;;19.70;66.30;;;15.78;100.00;95201.59;4990789;28;19952;-50
2023/07/29 04:39:24;;;;;;;;;;;19.70;67.20;;;15.80;100.00;95202.91;4976919;28;20418;-50
2023/07/29 04:41:49;;;;;;;;;;;19.70;66.50;;;15.82;100.00;95205.25;4980434;28;19909;-44
2023/07/29 04:44:15;;;;;;;;;;;19.70;66.50;;;15.85;100.00;95193.91;4989992;28;19917;-43
2023/07/29 04:46:41;;;;;;;;;;;19.70;66.50;;;15.86;100.00;95198.97;4994587;28;20368;-45
2023/07/29 04:49:07;;;;;;;;;;;19.80;66.50;;;15.82;100.00;95203.38;4993986;28;19913;-44
2023/07/29 04:51:33;;;;;;;;;;;19.80;66.40;;;15.84;100.00;95201.19;4994330;28;19936;-43
2023/07/29 04:53:59;;;;;;;;;;;19.90;66.40;;;15.88;100.00;95202.13;4988018;28;19913;-43
2023/07/29 04:56:25;;;;;;;;;;;19.90;66.40;;;15.93;100.00;95193.19;4994656;28;19920;-45
2023/07/29 04:58:52;;;;;;;;;;;20.00;66.30;;;15.93;100.00;95187.81;4993646;28;20004;-45
2023/07/29 05:01:18;;;;;;;;;;;20.00;66.30;;;15.99;100.00;95183.88;4994170;28;19916;-43
2023/07/29 05:03:44;;;;;;;;;;;20.10;66.20;;;16.02;100.00;95185.97;4994170;28;19909;-43
2023/07/29 05:06:10;;;;;;;;;;;20.10;66.20;;;16.12;100.00;95183.00;4993471;28;19953;-44
2023/07/29 05:08:36;;;;;;;;;;;20.20;66.20;;;16.17;100.00;95185.56;4994290;28;19952;-45
2023/07/29 05:11:02;;;;;;;;;;;20.20;66.10;;;16.30;100.00;95196.53;4993019;28;19917;-42
2023/07/29 05:13:28;;;;;;;;;;;20.40;66.10;;;16.43;100.00;95215.22;4991500;28;19924;-46
2023/07/29 05:15:54;;;;;;;;;;;20.50;66.10;;;16.53;100.00;95205.31;4983780;28;20311;-46
2023/07/29 05:18:20;;;;;;;;;;;20.80;66.00;;;16.86;100.00;95206.53;4993002;28;20347;-44
2023/07/29 05:20:47;;;;;;;;;;;21.10;65.90;;;17.11;100.00;95217.66;4993675;28;19910;-43
2023/07/29 05:23:13;;;;;;;;;;;21.30;65.90;;;17.27;100.00;95226.06;4980908;28;19913;-46
2023/07/29 05:25:39;;;;;;;;;;;21.50;65.90;;;17.45;100.00;95229.56;4994210;28;19909;-44
2023/07/29 05:28:05;;;;;;;;;;;21.70;65.90;;;17.51;100.00;95228.28;4993954;28;19909;-44
2023/07/29 05:30:37;;;;;;;;;;;21.90;65.70;;;17.70;100.00;95215.28;4993113;28;20506;-43
2023/07/29 05:33:04;;;;;;;;;;;22.10;65.60;;;17.67;100.00;95229.38;4990253;28;20013;-44
2023/07/29 05:35:30;;;;;;;;;;;22.10;65.40;;;17.73;100.00;95222.72;4983072;28;19920;-44
2023/07/29 05:37:56;;;;;;;;;;;22.20;65.30;;;17.72;100.00;95229.22;4991300;28;19915;-44
2023/07/29 05:40:22;;;;;;;;;;;22.30;65.20;;;17.80;100.00;95235.78;4974026;28;19914;-48
2023/07/29 05:42:48;;;;;;;;;;;22.40;65.00;;;17.91;100.00;95236.22;4977437;28;20004;-43
2023/07/29 05:45:13;;;;;;;;;;;22.40;64.90;;;17.97;100.00;95232.25;4993488;28;19996;-44
2023/07/29 05:47:39;;;;;;;;;;;22.50;65.00;;;18.01;100.00;95231.28;4992502;28;20443;-45
2023/07/29 05:50:06;;;;;;;;;;;22.60;64.90;;;18.06;100.00;95235.72;4993095;28;20020;-46
2023/07/29 05:52:32;;;;;;;;;;;22.60;64.90;;;18.11;100.00;95234.75;4993554;28;19921;-46
2023/07/29 05:54:58;;;;;;;;;;;22.70;64.80;;;18.09;100.00;95227.00;4974210;28;19958;-46
2023/07/29 05:57:24;;;;;;;;;;;22.80;64.80;;;18.12;100.00;95231.75;4983538;28;19914;-45
2023/07/29 05:59:50;;;;;;;;;;;22.80;64.60;;;18.21;100.00;95232.53;4982181;28;19909;-45
2023/07/29 06:02:15;;;;;;;;;;;22.90;64.60;;;18.25;100.00;95235.34;4994746;28;19935;-44
2023/07/29 06:04:41;;;;;;;;;;;23.00;64.50;;;18.35;100.00;95236.91;4992456;28;19917;-46
2023/07/29 06:07:08;;;;;;;;;;;23.10;64.40;;;18.40;100.00;95225.97;4993262;28;19909;-48
2023/07/29 06:09:33;;;;;;;;;;;23.20;64.30;;;18.48;100.00;95227.81;4992903;28;19971;-46
2023/07/29 06:11:59;;;;;;;;;;;23.30;65.10;;;18.56;100.00;95228.91;4992015;28;20368;-43
2023/07/29 06:14:26;;;;;;;;;;;23.40;64.20;;;18.63;100.00;95231.91;4992209;28;19909;-48
2023/07/29 06:16:51;;;;;;;;;;;23.50;64.10;;;18.72;100.00;95233.47;4991850;28;19921;-44
2023/07/29 06:19:20;;;;;;;;;;;23.60;64.00;;;18.83;100.00;95233.09;4992409;28;19909;-43
2023/07/29 06:21:46;;;;;;;;;;;23.70;63.80;;;18.90;100.00;95231.47;4993494;28;19955;-43
2023/07/29 06:24:11;;;;;;;;;;;23.90;64.60;;;19.08;100.00;95231.38;4982069;28;19941;-45
2023/07/29 06:26:37;;;;;;;;;;;24.10;63.70;;;19.31;100.00;95231.88;4989758;28;19941;-45
2023/07/29 06:29:03;;;;;;;;;;;24.40;63.60;;;19.57;100.00;95232.47;4990955;28;19913;-46
2023/07/29 06:31:29;;;;;;;;;;;24.60;63.50;;;19.69;100.00;95230.97;4980995;28;19974;-46
2023/07/29 06:33:55;;;;;;;;;;;24.80;63.40;;;19.81;100.00;95233.75;4990727;28;20373;-46
2023/07/29 06:36:21;;;;;;;;;;;25.00;63.40;;;19.85;100.00;95238.13;4988146;28;20430;-43
2023/07/29 06:38:47;;;;;;;;;;;25.00;63.20;;;19.91;100.00;95233.31;4983624;28;19964;-44
2023/07/29 06:41:13;;;;;;;;;;;25.20;63.20;;;19.98;100.00;95233.56;4976216;28;19914;-45
2023/07/29 06:43:39;;;;;;;;;;;25.20;62.90;;;20.00;100.00;95238.66;4993777;28;19909;-46
2023/07/29 06:46:05;;;;;;;;;;;25.30;62.70;;;19.98;100.00;95238.97;4992374;28;19914;-47
2023/07/29 06:48:30;;;;;;;;;;;25.40;62.50;;;20.14;100.00;95241.84;4984779;28;19913;-44
2023/07/29 06:51:00;;;;;;;;;;;25.50;62.40;;;20.28;100.00;95228.03;4976437;28;19916;-44
2023/07/29 06:53:26;;;;;;;;;;;25.60;62.20;;;20.39;100.00;95234.56;4987767;28;19916;-44
2023/07/29 06:55:52;;;;;;;;;;;25.70;62.10;;;20.15;100.00;95235.31;4988378;28;19914;-45
2023/07/29 06:58:19;;;;;;;;;;;25.70;61.70;;;20.42;100.00;95231.19;4982062;28;20315;-43
2023/07/29 07:00:45;;;;;;;;;;;25.80;61.70;;;20.52;99.23;95236.19;4990099;28;20354;-44
2023/07/29 07:03:10;;;;;;;;;;;25.90;61.60;;;20.60;96.90;95237.25;4990539;28;20020;-44
2023/07/29 07:05:36;;;;;;;;;;;25.90;61.40;;;20.72;99.92;95234.53;4990874;28;19914;-46
2023/07/29 07:08:02;;;;;;;;;;;26.00;61.40;;;20.91;100.00;95242.09;4990724;28;20312;-43
2023/07/29 07:10:28;;;;;;;;;;;26.10;62.10;;;21.03;98.27;95233.19;4991201;28;19913;-47
2023/07/29 07:12:54;;;;;;;;;;;26.20;61.20;;;21.17;100.00;95230.91;4990979;28;19909;-48
2023/07/29 07:15:20;;;;;;;;;;;26.40;61.10;;;21.34;95.22;95238.00;4991971;28;19924;-46
2023/07/29 07:17:45;;;;;;;;;;;26.60;61.00;;;21.49;93.42;95231.88;4986224;28;19921;-49
2023/07/29 07:20:11;;;;;;;;;;;26.70;60.60;;;21.69;90.86;95232.09;4976367;28;19928;-49
2023/07/29 07:22:37;;;;;;;;;;;26.90;60.40;;;21.87;89.21;95230.66;4992133;28;19913;-47
2023/07/29 07:25:03;;;;;;;;;;;27.10;60.10;;;22.18;87.05;95224.53;4989661;28;20000;-44
2023/07/29 07:27:29;;;;;;;;;;;27.50;59.80;;;22.30;86.42;95228.34;4991867;28;20280;-44
2023/07/29 07:29:55;;;;;;;;;;;27.80;59.70;;;22.59;86.74;95221.69;4990936;28;19909;-44
2023/07/29 07:32:20;;;;;;;;;;;28.00;59.40;;;22.83;85.81;95216.09;4992070;28;19914;-46
2023/07/29 07:34:46;;;;;;;;;;;28.30;59.30;;;23.17;84.42;95215.75;4978424;28;19916;-47
2023/07/29 07:37:12;;;;;;;;;;;28.60;59.10;;;23.57;79.95;95212.72;4980499;28;19941;-47
2023/07/29 07:39:38;;;;;;;;;;;29.00;59.00;;;23.83;79.93;95208.63;4972654;28;19917;-45
2023/07/29 07:42:04;;;;;;;;;;;29.40;58.60;;;24.09;76.80;95218.81;4981697;28;19955;-47
2023/07/29 07:44:30;;;;;;;;;;;29.70;58.30;;;24.44;73.85;95210.53;4987545;28;20388;-45
2023/07/29 07:46:55;;;;;;;;;;;30.20;57.90;;;24.70;75.04;95207.13;4981566;28;19910;-45
2023/07/29 07:49:22;;;;;;;;;;;30.70;57.30;;;24.97;71.77;95199.75;4988806;28;19913;-49
2023/07/29 07:51:48;;;;;;;;;;;31.10;56.50;;;25.36;70.63;95207.75;4981652;28;19914;-49
2023/07/29 07:54:14;;;;;;;;;;;31.40;56.00;;;25.61;64.85;95200.69;4987727;28;20280;-46
2023/07/29 07:56:39;;;;;;;;;;;31.90;55.60;;;25.88;65.61;95208.03;4991920;28;19920;-47
2023/07/29 07:59:05;;;;;;;;;;;32.20;54.90;;;26.22;67.82;95197.88;4990253;28;19915;-49
2023/07/29 08:01:36;;;;;;;;;;;32.50;54.30;;;26.35;64.25;95210.09;4991543;28;20477;-45
2023/07/29 08:04:03;;;;;;;;;;;32.80;53.50;;;26.49;62.61;95215.75;4990968;28;19953;-49
2023/07/29 08:06:30;;;;;;;;;;;32.90;53.00;;;26.63;64.21;95211.56;4990436;28;19910;-46
2023/07/29 08:08:56;;;;;;;;;;;32.90;52.80;;;26.44;61.17;95212.53;4991005;28;19910;-47
2023/07/29 08:11:22;;;;;;;;;;;32.90;52.40;;;26.28;61.71;95213.53;4990594;28;19917;-47
2023/07/29 08:13:48;;;;;;;;;;;32.90;52.00;;;26.00;62.33;95213.25;4978528;28;19910;-45
2023/07/29 08:16:14;;;;;;;;;;;32.90;51.20;;;25.94;61.27;95222.91;4999871;23;19925;-52
2023/07/29 08:18:40;;;;;;;;;;;32.80;50.80;;;25.75;63.11;95221.88;4992351;28;19920;-47
2023/07/29 08:21:06;;;;;;;;;;;32.70;50.80;;;25.84;65.20;95214.22;4995744;28;20283;-50
2023/07/29 08:23:35;;;;;;;;;;;32.60;50.60;;;25.93;64.29;95213.94;4994803;28;20383;-49
2023/07/29 08:26:05;;;;;;;;;;;32.50;50.70;;;25.78;65.62;95215.69;4987254;28;19948;-48
2023/07/29 08:28:39;;;;;;;;;;;32.40;50.20;;;25.98;62.41;95210.91;4991418;28;19933;-50
2023/07/29 08:31:06;;;;;;;;;;;32.50;50.10;;;25.94;63.50;95201.88;4984960;28;19920;-50
2023/07/29 08:33:33;;;;;;;;;;;32.50;49.70;;;26.30;62.57;95197.59;4978335;28;19932;-49
2023/07/29 08:36:00;;;;;;;;;;;32.40;49.90;;;26.51;62.02;95207.97;4985033;28;19918;-49
2023/07/29 08:38:26;;;;;;;;;;;32.50;50.50;;;26.63;62.43;95204.16;4995449;28;20004;-51
2023/07/29 08:41:25;;;;;;;;;;;32.70;49.80;;;26.71;61.87;95203.06;4984858;28;19914;-48
2023/07/29 08:44:11;;;;;;;;;;;32.80;49.50;;;26.88;60.46;95214.50;4976112;28;19917;-48
2023/07/29 08:46:40;;;;;;;;;;;33.10;49.30;;;27.14;59.55;95197.16;4981012;28;20071;-48
2023/07/29 08:49:06;;;;;;;;;;;33.30;48.80;;;27.43;60.42;95198.91;4983150;28;19971;-54
2023/07/29 08:51:33;;;;;;;;;;;33.50;48.50;;;27.76;58.93;95204.53;4994561;28;20016;-48
2023/07/29 08:53:59;;;;;;;;;;;33.90;48.40;;;27.99;57.61;95209.75;4967597;28;19913;-51
2023/07/29 08:56:25;;;;;;;;;;;34.20;48.20;;;28.20;58.93;95217.22;4975422;28;19913;-51
2023/07/29 08:58:52;;;;;;;;;;;34.50;47.60;;;28.56;55.41;95215.38;4987599;28;19956;-53
2023/07/29 09:01:18;;;;;;;;;;;34.70;47.40;;;28.71;56.36;95211.50;4993512;28;19909;-52
2023/07/29 09:03:44;;;;;;;;;;;34.80;47.30;;;28.74;56.49;95213.44;4981979;28;19909;-55
2023/07/29 09:06:09;;;;;;;;;;;35.00;47.20;;;29.04;59.71;95206.81;4985620;28;20349;-55
2023/07/29 09:08:36;;;;;;;;;;;35.10;47.30;;;29.00;53.66;95206.78;4981769;28;19914;-55
2023/07/29 09:11:03;;;;;;;;;;;35.40;47.80;;;29.23;52.22;95206.38;4980804;28;19945;-54
2023/07/29 09:13:28;;;;;;;;;;;35.70;46.80;;;29.43;51.36;95203.25;4980550;28;19921;-51
2023/07/29 09:15:56;;;;;;;;;;;35.90;46.50;;;29.62;52.92;95202.81;4985321;28;19917;-52
2023/07/29 09:18:23;;;;;;;;;;;36.10;46.00;;;29.71;49.05;95196.91;4992531;28;19957;-54
2023/07/29 09:20:50;;;;;;;;;;;36.40;45.70;;;29.71;50.77;95203.19;4982127;28;19909;-56
2023/07/29 09:23:17;;;;;;;;;;;36.50;44.80;;;29.67;50.41;95207.09;4992737;28;19924;-53
2023/07/29 09:25:45;;;;;;;;;;;36.40;44.40;;;29.85;51.64;95204.31;4982140;28;20406;-54
2023/07/29 09:28:16;;;;;;;;;;;36.60;44.50;;;30.01;49.08;95204.63;4993294;28;20020;-53
2023/07/29 09:30:46;;;;;;;;;;;36.70;44.30;;;30.02;51.03;95202.66;4978285;28;19917;-51
2023/07/29 09:33:12;;;;;;;;;;;36.90;43.70;;;30.09;48.04;95203.41;4987746;28;19913;-53
2023/07/29 09:35:38;;;;;;;;;;;36.90;43.80;;;30.13;49.70;95193.19;4980159;28;19939;-54
2023/07/29 09:38:06;;;;;;;;;;;36.80;43.80;;;29.99;49.34;95201.47;4992634;28;19910;-55
2023/07/29 09:40:37;;;;;;;;;;;36.60;43.70;;;29.80;50.80;95197.25;4974714;28;20024;-53
2023/07/29 09:43:05;;;;;;;;;;;36.40;43.80;;;29.86;49.83;95208.59;4975784;28;19913;-55
2023/07/29 09:45:35;;;;;;;;;;;36.40;43.90;;;29.98;48.75;95197.19;4974198;28;19925;-51
2023/07/29 09:48:01;;;;;;;;;;;36.50;43.80;;;29.94;49.06;95202.69;4984569;28;19909;-56
2023/07/29 09:50:27;;;;;;;;;;;36.70;43.80;;;30.14;49.84;95202.97;4983921;28;19916;-55
2023/07/29 09:52:57;;;;;;;;;;;37.00;43.40;;;30.28;48.35;95204.91;4973697;28;20419;-53
2023/07/29 09:55:25;;;;;;;;;;;37.30;43.20;;;30.58;47.88;95198.03;4974026;28;19924;-49
2023/07/29 09:58:04;;;;;;;;;;;37.80;42.80;;;31.16;47.77;95201.94;4988624;28;19910;-54
2023/07/29 10:00:31;;;;;;;;;;;38.30;42.30;;;31.79;47.41;95190.69;4975052;28;19955;-55
2023/07/29 10:02:58;;;;;;;;;;;38.90;42.20;;;32.17;43.49;95190.63;4973746;28;19955;-53
2023/07/29 10:05:29;;;;;;;;;;;39.30;42.00;;;32.15;44.46;95196.53;4981341;28;19917;-53
2023/07/29 10:07:56;;;;;;;;;;;39.70;41.60;;;31.98;44.12;95184.59;4973460;28;19917;-57
2023/07/29 10:10:22;;;;;;;;;;;40.00;41.10;;;31.98;43.13;95192.84;4972956;28;19909;-55
2023/07/29 10:12:50;;;;;;;;;;;40.10;40.70;;;31.80;42.69;95195.00;4981629;28;19914;-55
2023/07/29 10:15:15;;;;;;;;;;;40.00;40.20;;;32.09;43.45;95189.16;4973154;28;20024;-51
2023/07/29 10:17:41;;;;;;;;;;;39.80;40.20;;;32.26;44.71;95191.69;4987046;28;20011;-54
2023/07/29 10:20:11;;;;;;;;;;;39.80;40.10;;;31.98;43.86;95194.81;4984211;28;19917;-50
2023/07/29 10:22:41;;;;;;;;;;;39.80;40.20;;;31.85;45.71;95191.03;4974037;28;19910;-49
2023/07/29 10:25:17;;;;;;;;;;;39.70;39.90;;;31.85;43.31;95196.53;4986170;28;19963;-49
2023/07/29 10:28:06;;;;;;;;;;;39.80;39.80;;;32.20;45.64;95185.06;4980776;28;19909;-48
2023/07/29 10:30:33;;;;;;;;;;;39.90;39.50;;;32.36;42.59;95187.22;4988439;28;19953;-49
2023/07/29 10:33:04;;;;;;;;;;;39.80;39.80;;;32.32;42.30;95185.72;4983485;28;20295;-50
2023/07/29 10:35:33;;;;;;;;;;;39.70;39.80;;;32.27;42.42;95184.19;4980183;28;20050;-48
2023/07/29 10:38:01;;;;;;;;;;;39.50;39.70;;;32.30;41.88;95183.38;5007754;28;20287;-51
2023/07/29 10:41:02;;;;;;;;;;;39.60;39.20;;;32.22;42.41;95177.19;4992853;28;19917;-49
2023/07/29 10:43:34;;;;;;;;;;;39.70;38.90;;;31.89;41.24;95178.78;4989345;28;20000;-49
2023/07/29 10:46:17;;;;;;;;;;;39.40;38.60;;;32.03;41.39;95181.38;4982005;28;19936;-48
2023/07/29 10:48:53;;;;;;;;;;;39.40;38.50;;;31.77;43.09;95176.56;4987905;28;19913;-48
2023/07/29 10:51:26;;;;;;;;;;;39.40;38.40;;;31.46;41.97;95167.47;4978576;28;20008;-49
2023/07/29 10:54:16;;;;;;;;;;;39.20;39.00;;;31.01;42.78;95170.25;4980943;28;19932;-48
2023/07/29 10:56:48;;;;;;;;;;;38.80;38.40;;;30.77;44.03;95170.06;4992133;28;20004;-53
2023/07/29 10:59:17;;;;;;;;;;;38.40;38.50;;;30.60;45.22;95162.72;4982955;28;19917;-51
2023/07/29 11:01:58;;;;;;;;;;;38.10;38.60;;;30.38;45.49;95148.34;4978552;28;20003;-51
2023/07/29 11:04:29;;;;;;;;;;;37.70;38.90;;;30.28;45.62;95152.72;4972696;28;19948;-51
2023/07/29 11:07:04;;;;;;;;;;;37.30;39.00;;;30.14;44.80;95158.28;4989387;28;19952;-52
2023/07/29 11:09:49;;;;;;;;;;;37.00;39.20;;;29.72;47.33;95168.28;4979235;28;19909;-52
2023/07/29 11:12:45;;;;;;;;;;;36.60;39.40;;;29.29;48.01;95158.19;4979466;28;19909;-55
2023/07/29 11:15:13;;;;;;;;;;;36.10;39.60;;;28.94;47.92;95163.72;4982358;28;19964;-52
2023/07/29 11:18:01;;;;;;;;;;;35.50;39.90;;;28.64;49.98;95155.88;5000871;28;19909;-53